createdAt,value
2022-11-06T00:00:50.196Z,99386.15
2022-11-06T00:03:18.602Z,99386.98
2022-11-06T00:06:05.948Z,99394.81
2022-11-06T00:08:37.231Z,99393.23
2022-11-06T00:11:13.706Z,99393.52
2022-11-06T00:13:42.899Z,99393.10
2022-11-06T00:16:12.707Z,99396.55
2022-11-06T00:18:42.251Z,99397.00
2022-11-06T00:21:13.853Z,99399.14
2022-11-06T00:23:43.252Z,99400.52
2022-11-06T00:26:15.148Z,99400.33
2022-11-06T00:28:44.273Z,99398.06
2022-11-06T00:31:15.306Z,99398.22
2022-11-06T00:33:44.376Z,99399.11
2022-11-06T00:36:19.197Z,99397.96
2022-11-06T00:38:48.075Z,99398.13
2022-11-06T00:41:17.669Z,99399.30
2022-11-06T00:43:50.787Z,99398.02
2022-11-06T00:46:20.069Z,99398.05
2022-11-06T00:48:48.585Z,99397.85
2022-11-06T00:51:19.887Z,99398.20
2022-11-06T00:53:48.844Z,99399.98
2022-11-06T00:56:19.411Z,99402.34
2022-11-06T00:58:48.082Z,99400.45
2022-11-06T01:01:19.943Z,99401.52
2022-11-06T01:03:58.208Z,99400.48
2022-11-06T01:06:29.118Z,99398.61
2022-11-06T01:08:58.324Z,99401.65
2022-11-06T01:11:52.615Z,99399.38
2022-11-06T01:14:23.213Z,99400.75
2022-11-06T01:16:52.135Z,99404.73
2022-11-06T01:19:21.765Z,99406.88
2022-11-06T01:21:52.881Z,99409.74
2022-11-06T01:24:27.004Z,99408.80
2022-11-06T01:29:45.136Z,99407.61
2022-11-06T01:32:13.827Z,99409.65
2022-11-06T01:34:42.161Z,99408.84
2022-11-06T01:37:14.520Z,99408.00
2022-11-06T01:39:43.418Z,99410.25
2022-11-06T01:42:14.197Z,99410.80
2022-11-06T01:44:42.429Z,99415.40
2022-11-06T01:47:26.636Z,99413.36
2022-11-06T01:49:57.961Z,99411.15
2022-11-06T01:52:28.348Z,99411.38
2022-11-06T01:55:04.233Z,99414.44
2022-11-06T01:57:32.606Z,99411.44
2022-11-06T02:00:01.377Z,99415.77
2022-11-06T02:02:29.854Z,99417.10
2022-11-06T02:04:58.224Z,99420.50
2022-11-06T02:07:26.923Z,99426.12
2022-11-06T02:09:55.312Z,99428.09
2022-11-06T02:12:29.695Z,99429.74
2022-11-06T02:15:11.909Z,99432.35
2022-11-06T02:18:13.101Z,99432.36
2022-11-06T02:21:06.995Z,99436.42
2022-11-06T02:24:27.702Z,99436.60
2022-11-06T02:27:11.188Z,99437.48
2022-11-06T02:29:59.946Z,99439.37
2022-11-06T02:32:54.449Z,99441.05
2022-11-06T02:35:30.943Z,99440.88
2022-11-06T02:38:13.589Z,99440.52
2022-11-06T02:40:51.354Z,99436.42
2022-11-06T02:43:25.174Z,99439.15
2022-11-06T02:46:16.305Z,99444.04
2022-11-06T02:48:53.638Z,99443.83
2022-11-06T02:51:26.688Z,99444.83
2022-11-06T02:54:01.415Z,99446.92
2022-11-06T02:56:35.156Z,99445.02
2022-11-06T02:59:17.780Z,99444.00
2022-11-06T03:01:52.421Z,99449.98
2022-11-06T03:04:33.997Z,99449.05
2022-11-06T03:07:14.841Z,99446.80
2022-11-06T03:09:44.477Z,99447.45
2022-11-06T03:12:37.585Z,99449.92
2022-11-06T03:15:11.217Z,99446.36
2022-11-06T03:17:49.739Z,99448.18
2022-11-06T03:20:36.230Z,99447.48
2022-11-06T03:23:14.854Z,99452.84
2022-11-06T03:25:58.817Z,99454.13
2022-11-06T03:28:35.380Z,99457.16
2022-11-06T03:31:10.263Z,99456.61
2022-11-06T03:33:49.833Z,99460.15
2022-11-06T03:36:36.860Z,99461.57
2022-11-06T03:39:10.255Z,99464.23
2022-11-06T03:42:08.075Z,99468.23
2022-11-06T03:44:41.621Z,99469.42
2022-11-06T03:47:22.356Z,99472.13
2022-11-06T03:50:00.815Z,99480.05
2022-11-06T03:52:38.392Z,99476.27
2022-11-06T03:55:15.498Z,99477.39
2022-11-06T03:57:50.097Z,99476.23
2022-11-06T04:00:23.226Z,99474.59
2022-11-06T04:03:05.872Z,99471.36
2022-11-06T04:05:50.984Z,99477.55
2022-11-06T04:08:41.989Z,99476.31
2022-11-06T04:11:32.040Z,99480.13
2022-11-06T04:14:02.154Z,99479.98
2022-11-06T04:17:02.750Z,99478.77
2022-11-06T04:19:31.013Z,99478.09
2022-11-06T04:22:02.035Z,99478.86
2022-11-06T04:24:52.096Z,99482.79
2022-11-06T04:27:55.111Z,99479.86
2022-11-06T04:30:24.812Z,99479.59
2022-11-06T04:33:15.536Z,99480.30
2022-11-06T04:35:53.541Z,99478.42
2022-11-06T04:38:37.457Z,99483.57
2022-11-06T04:41:18.635Z,99485.06
2022-11-06T04:43:49.926Z,99483.98
2022-11-06T04:46:32.904Z,99484.27
2022-11-06T04:49:05.620Z,99487.96
2022-11-06T04:51:38.231Z,99488.45
2022-11-06T04:54:10.048Z,99493.89
2022-11-06T04:56:44.541Z,99492.98
2022-11-06T04:59:17.754Z,99495.57
2022-11-06T05:01:47.040Z,99493.89
2022-11-06T05:04:15.578Z,99494.27
2022-11-06T05:06:43.898Z,99494.02
2022-11-06T05:09:12.169Z,99495.13
2022-11-06T05:11:40.523Z,99502.51
2022-11-06T05:14:08.748Z,99506.02
2022-11-06T05:16:37.069Z,99508.17
2022-11-06T05:19:05.480Z,99508.76
2022-11-06T05:21:52.109Z,99511.30
2022-11-06T05:24:20.440Z,99513.13
2022-11-06T05:26:48.800Z,99516.67
2022-11-06T05:29:17.035Z,99518.00
2022-11-06T05:31:45.417Z,99520.91
2022-11-06T05:34:13.757Z,99521.42
2022-11-06T05:36:42.025Z,99523.27
2022-11-06T05:39:10.628Z,99522.22
2022-11-06T05:41:38.896Z,99522.91
2022-11-06T05:44:07.581Z,99523.71
2022-11-06T05:46:48.168Z,99524.19
2022-11-06T05:49:19.156Z,99525.10
2022-11-06T05:51:48.116Z,99531.02
2022-11-06T05:54:16.554Z,99532.25
2022-11-06T05:56:44.839Z,99539.10
2022-11-06T05:59:13.281Z,99541.69
2022-11-06T06:01:41.630Z,99541.38
2022-11-06T06:04:10.075Z,99544.56
2022-11-06T06:06:39.548Z,99549.02
2022-11-06T06:09:07.871Z,99547.67
2022-11-06T06:11:36.791Z,99549.60
2022-11-06T06:14:05.168Z,99550.20
2022-11-06T06:16:33.491Z,99550.81
2022-11-06T06:19:01.885Z,99550.48
2022-11-06T06:21:30.226Z,99551.70
2022-11-06T06:23:58.499Z,99553.90
2022-11-06T06:26:26.856Z,99554.65
2022-11-06T06:28:55.259Z,99552.35
2022-11-06T06:31:24.046Z,99555.35
2022-11-06T06:33:52.342Z,99559.55
2022-11-06T06:36:20.829Z,99565.83
2022-11-06T06:38:49.140Z,99569.59
2022-11-06T06:41:17.396Z,99576.60
2022-11-06T06:43:49.115Z,99577.98
2022-11-06T06:46:17.728Z,99576.30
2022-11-06T06:48:46.341Z,99580.36
2022-11-06T06:51:16.498Z,99581.03
2022-11-06T06:53:48.284Z,99580.86
2022-11-06T06:56:16.597Z,99580.10
2022-11-06T06:58:44.856Z,99577.10
2022-11-06T07:01:13.392Z,99579.58
2022-11-06T07:03:41.690Z,99576.81
2022-11-06T07:06:10.021Z,99581.33
2022-11-06T07:08:38.651Z,99583.27
2022-11-06T07:11:09.734Z,99585.89
2022-11-06T07:13:38.002Z,99593.04
2022-11-06T07:16:09.289Z,99593.86
2022-11-06T07:18:39.135Z,99594.81
2022-11-06T07:21:10.817Z,99601.46
2022-11-06T07:23:40.202Z,99595.60
2022-11-06T07:26:08.983Z,99597.21
2022-11-06T07:28:37.312Z,99599.40
2022-11-06T07:31:08.319Z,99596.42
2022-11-06T07:33:36.834Z,99593.33
2022-11-06T07:36:12.128Z,99589.38
2022-11-06T07:38:42.954Z,99587.47
2022-11-06T07:41:14.452Z,99582.19
2022-11-06T07:43:43.863Z,99581.16
2022-11-06T07:46:13.164Z,99584.91
2022-11-06T07:48:41.611Z,99585.30
2022-11-06T07:51:11.268Z,99582.87
2022-11-06T07:53:40.021Z,99583.58
2022-11-06T07:56:08.924Z,99578.73
2022-11-06T07:58:37.510Z,99577.44
2022-11-06T08:01:06.697Z,99576.52
2022-11-06T08:03:35.016Z,99579.56
2022-11-06T08:06:07.686Z,99579.01
2022-11-06T08:08:36.625Z,99577.25
2022-11-06T08:11:09.808Z,99584.48
2022-11-06T08:13:38.884Z,99585.92
2022-11-06T08:16:12.811Z,99583.69
2022-11-06T08:18:42.048Z,99584.79
2022-11-06T08:21:10.418Z,99583.11
2022-11-06T08:23:38.702Z,99580.14
2022-11-06T08:26:07.517Z,99579.23
2022-11-06T08:28:35.915Z,99575.86
2022-11-06T08:31:06.202Z,99578.64
2022-11-06T08:33:36.590Z,99578.74
2022-11-06T08:36:06.175Z,99575.38
2022-11-06T08:38:34.513Z,99575.20
2022-11-06T08:41:12.463Z,99574.38
2022-11-06T08:43:41.002Z,99573.86
2022-11-06T08:46:10.655Z,99572.50
2022-11-06T08:48:38.918Z,99570.58
2022-11-06T08:51:07.392Z,99568.48
2022-11-06T08:53:35.853Z,99565.42
2022-11-06T08:56:05.121Z,99564.83
2022-11-06T08:58:33.630Z,99569.70
2022-11-06T09:01:01.925Z,99568.19
2022-11-06T09:03:30.263Z,99570.65
2022-11-06T09:05:58.598Z,99568.42
2022-11-06T09:08:27.428Z,99568.73
2022-11-06T09:10:58.649Z,99571.02
2022-11-06T09:13:27.736Z,99567.56
2022-11-06T09:15:55.963Z,99569.11
2022-11-06T09:18:24.222Z,99572.05
2022-11-06T09:20:57.203Z,99571.34
2022-11-06T09:23:25.633Z,99572.70
2022-11-06T09:25:54.047Z,99567.13
2022-11-06T09:28:22.348Z,99570.46
2022-11-06T09:30:50.718Z,99569.73
2022-11-06T09:33:19.558Z,99570.77
2022-11-06T09:35:48.291Z,99574.09
2022-11-06T09:38:16.704Z,99575.66
2022-11-06T09:40:51.060Z,99574.54
2022-11-06T09:44:04.187Z,99573.42
2022-11-06T09:46:39.531Z,99577.64
2022-11-06T09:49:19.680Z,99571.97
2022-11-06T09:51:55.560Z,99568.74
2022-11-06T09:54:50.754Z,99568.39
2022-11-06T09:57:47.985Z,99568.30
2022-11-06T10:00:18.097Z,99565.55
2022-11-06T10:02:52.698Z,99565.70
2022-11-06T10:05:34.646Z,99562.77
2022-11-06T10:08:07.609Z,99559.89
2022-11-06T10:10:46.624Z,99555.15
2022-11-06T10:13:53.416Z,99557.71
2022-11-06T10:16:53.912Z,99553.87
2022-11-06T10:19:48.483Z,99553.73
2022-11-06T10:22:23.243Z,99550.27
2022-11-06T10:25:16.589Z,99547.81
2022-11-06T10:28:16.544Z,99543.89
2022-11-06T10:30:51.081Z,99542.29
2022-11-06T10:33:39.332Z,99542.65
2022-11-06T10:36:21.743Z,99540.85
2022-11-06T10:38:51.738Z,99539.15
2022-11-06T10:41:26.442Z,99539.08
2022-11-06T10:44:05.999Z,99534.45
2022-11-06T10:46:40.580Z,99534.74
2022-11-06T10:49:24.159Z,99533.08
2022-11-06T10:52:14.080Z,99534.95
2022-11-06T10:55:14.572Z,99534.44
2022-11-06T10:57:51.729Z,99528.74
2022-11-06T11:00:20.170Z,99526.72
2022-11-06T11:02:53.497Z,99522.08
2022-11-06T11:05:24.891Z,99514.23
2022-11-06T11:07:55.295Z,99511.57
2022-11-06T11:10:23.541Z,99507.39
2022-11-06T11:12:55.162Z,99498.38
2022-11-06T11:15:26.307Z,99490.27
2022-11-06T11:18:18.455Z,99489.42
2022-11-06T11:20:49.125Z,99486.65
2022-11-06T11:23:17.543Z,99485.85
2022-11-06T11:25:55.747Z,99484.52
2022-11-06T11:28:31.236Z,99482.98
2022-11-06T11:31:19.030Z,99479.00
2022-11-06T11:33:55.383Z,99480.56
2022-11-06T11:36:24.101Z,99477.93
2022-11-06T11:38:53.468Z,99478.30
2022-11-06T11:41:25.459Z,99480.84
2022-11-06T11:44:12.190Z,99477.79
2022-11-06T11:46:52.539Z,99474.63
2022-11-06T11:49:27.733Z,99473.33
2022-11-06T11:51:58.759Z,99467.98
2022-11-06T11:54:31.848Z,99466.02
2022-11-06T11:57:06.645Z,99465.64
2022-11-06T11:59:48.644Z,99467.59
2022-11-06T12:02:28.104Z,99468.20
2022-11-06T12:05:05.706Z,99466.86
2022-11-06T12:07:46.242Z,99461.38
2022-11-06T12:10:41.517Z,99459.48
2022-11-06T12:13:25.670Z,99461.25
2022-11-06T12:16:08.763Z,99464.07
2022-11-06T12:18:42.412Z,99465.81
2022-11-06T12:21:33.900Z,99471.30
2022-11-06T12:24:05.639Z,99472.50
2022-11-06T12:26:43.180Z,99470.70
2022-11-06T12:29:22.789Z,99466.95
2022-11-06T12:32:01.186Z,99470.05
2022-11-06T12:34:39.213Z,99470.09
2022-11-06T12:37:13.686Z,99471.48
2022-11-06T12:39:47.425Z,99469.73
2022-11-06T12:42:19.384Z,99469.92
2022-11-06T12:44:48.121Z,99470.69
2022-11-06T12:47:35.791Z,99466.64
2022-11-06T12:50:43.911Z,99465.52
2022-11-06T12:53:35.257Z,99467.89
2022-11-06T12:56:21.513Z,99465.91
2022-11-06T12:59:21.226Z,99467.01
2022-11-06T13:01:57.199Z,99460.42
2022-11-06T13:04:43.518Z,99460.98
2022-11-06T13:07:17.928Z,99460.99
2022-11-06T13:10:13.146Z,99458.65
2022-11-06T13:12:55.819Z,99456.70
2022-11-06T13:15:34.653Z,99454.46
2022-11-06T13:18:13.938Z,99450.81
2022-11-06T13:20:52.709Z,99448.99
2022-11-06T13:23:29.508Z,99446.52
2022-11-06T13:26:09.837Z,99446.16
2022-11-06T13:28:43.108Z,99446.86
2022-11-06T13:31:15.187Z,99449.23
2022-11-06T13:33:49.177Z,99451.59
2022-11-06T13:36:19.680Z,99454.63
2022-11-06T13:38:59.275Z,99455.33
2022-11-06T13:41:30.731Z,99460.53
2022-11-06T13:44:03.111Z,99460.58
2022-11-06T13:46:56.261Z,99459.05
2022-11-06T13:49:52.505Z,99459.83
2022-11-06T13:52:35.654Z,99455.80
2022-11-06T13:55:15.924Z,99455.75
2022-11-06T13:58:06.322Z,99456.52
2022-11-06T14:01:08.507Z,99454.12
2022-11-06T14:04:05.726Z,99448.63
2022-11-06T14:06:37.143Z,99449.36
2022-11-06T14:09:09.948Z,99446.84
2022-11-06T14:11:42.286Z,99446.58
2022-11-06T14:14:23.356Z,99440.30
2022-11-06T14:17:16.587Z,99444.95
2022-11-06T14:19:51.247Z,99446.50
2022-11-06T14:22:27.523Z,99446.81
2022-11-06T14:25:01.679Z,99446.64
2022-11-06T14:27:30.767Z,99444.69
2022-11-06T14:30:02.052Z,99448.29
2022-11-06T14:32:30.321Z,99451.20
2022-11-06T14:35:31.288Z,99446.92
2022-11-06T14:38:34.852Z,99439.83
2022-11-06T14:41:35.234Z,99440.42
2022-11-06T14:44:05.449Z,99435.70
2022-11-06T14:46:34.347Z,99431.83
2022-11-06T14:49:31.119Z,99431.64
2022-11-06T14:52:22.118Z,99430.15
2022-11-06T14:54:58.385Z,99432.19
2022-11-06T14:57:53.021Z,99433.91
2022-11-06T15:00:48.757Z,99433.27
2022-11-06T15:03:20.102Z,99432.54
2022-11-06T15:05:52.356Z,99428.29
2022-11-06T15:08:43.677Z,99426.16
2022-11-06T15:11:30.356Z,99425.54
2022-11-06T15:14:07.758Z,99423.81
2022-11-06T15:16:49.908Z,99421.52
2022-11-06T15:19:38.676Z,99419.00
2022-11-06T15:22:14.064Z,99419.30
2022-11-06T15:24:48.057Z,99417.52
2022-11-06T15:27:20.785Z,99416.91
2022-11-06T15:29:54.392Z,99413.56
2022-11-06T15:32:26.789Z,99406.90
2022-11-06T15:35:21.756Z,99403.81
2022-11-06T15:37:58.454Z,99401.38
2022-11-06T15:40:39.301Z,99401.77
2022-11-06T15:43:35.835Z,99401.48
2022-11-06T15:46:17.428Z,99396.57
2022-11-06T15:48:46.613Z,99392.34
2022-11-06T15:51:28.173Z,99387.91
2022-11-06T15:53:56.537Z,99386.62
2022-11-06T15:56:31.633Z,99388.80
2022-11-06T15:59:08.964Z,99394.72
2022-11-06T16:01:37.918Z,99394.14
2022-11-06T16:04:15.684Z,99398.69
2022-11-06T16:06:47.759Z,99400.21
2022-11-06T16:09:23.880Z,99400.27
2022-11-06T16:11:54.022Z,99399.08
2022-11-06T16:14:22.832Z,99399.31
2022-11-06T16:16:53.436Z,99405.56
2022-11-06T16:19:37.774Z,99408.77
2022-11-06T16:22:11.122Z,99407.52
2022-11-06T16:24:45.685Z,99407.03
2022-11-06T16:27:15.494Z,99407.17
2022-11-06T16:29:58.029Z,99407.83
2022-11-06T16:32:30.649Z,99410.48
2022-11-06T16:35:00.364Z,99410.81
2022-11-06T16:37:29.797Z,99406.40
2022-11-06T16:39:59.754Z,99405.86
2022-11-06T16:42:34.094Z,99409.80
2022-11-06T16:45:15.961Z,99409.70
2022-11-06T16:48:06.959Z,99414.07
2022-11-06T16:50:55.859Z,99411.89
2022-11-06T16:53:28.026Z,99413.64
2022-11-06T16:56:02.164Z,99412.30
2022-11-06T16:58:36.181Z,99409.63
2022-11-06T17:01:06.564Z,99405.61
2022-11-06T17:03:48.262Z,99400.51
2022-11-06T17:06:26.412Z,99393.86
2022-11-06T17:09:19.243Z,99391.44
2022-11-06T17:11:47.466Z,99388.17
2022-11-06T17:14:19.124Z,99385.71
2022-11-06T17:16:57.992Z,99378.69
2022-11-06T17:19:29.798Z,99373.39
2022-11-06T17:21:58.424Z,99366.17
2022-11-06T17:24:42.380Z,99365.14
2022-11-06T17:27:10.936Z,99363.75
2022-11-06T17:29:39.320Z,99368.11
2022-11-06T17:32:07.636Z,99368.64
2022-11-06T17:34:35.928Z,99368.91
2022-11-06T17:37:04.294Z,99367.63
2022-11-06T17:39:33.263Z,99367.02
2022-11-06T17:42:01.642Z,99371.20
2022-11-06T17:44:29.975Z,99372.69
2022-11-06T17:47:01.224Z,99376.58
2022-11-06T17:49:29.454Z,99372.04
2022-11-06T17:52:00.838Z,99375.98
2022-11-06T17:54:34.602Z,99378.11
2022-11-06T17:57:05.083Z,99374.94
2022-11-06T17:59:34.791Z,99376.61
2022-11-06T18:02:03.534Z,99374.65
2022-11-06T18:04:32.001Z,99375.36
2022-11-06T18:07:00.447Z,99376.42
2022-11-06T18:09:29.278Z,99377.21
2022-11-06T18:11:57.569Z,99377.34
2022-11-06T18:14:27.976Z,99378.45
2022-11-06T18:16:56.331Z,99380.08
2022-11-06T18:19:25.844Z,99379.55
2022-11-06T18:21:55.127Z,99379.23
2022-11-06T18:24:23.696Z,99372.36
2022-11-06T18:26:52.703Z,99371.29
2022-11-06T18:29:21.046Z,99369.70
2022-11-06T18:31:49.399Z,99367.27
2022-11-06T18:34:21.302Z,99364.77
2022-11-06T18:36:51.066Z,99365.02
2022-11-06T18:39:21.092Z,99363.99
2022-11-06T18:41:49.809Z,99363.54
2022-11-06T18:44:18.685Z,99361.02
2022-11-06T18:46:47.701Z,99359.97
2022-11-06T18:49:16.074Z,99353.39
2022-11-06T18:51:44.461Z,99354.73
2022-11-06T18:54:13.558Z,99356.81
2022-11-06T18:56:42.430Z,99353.80
2022-11-06T18:59:15.536Z,99356.02
2022-11-06T19:01:43.945Z,99352.27
2022-11-06T19:04:13.385Z,99350.29
2022-11-06T19:06:42.639Z,99348.46
2022-11-06T19:09:11.056Z,99347.77
2022-11-06T19:11:39.461Z,99347.63
2022-11-06T19:14:07.915Z,99345.83
2022-11-06T19:16:37.547Z,99343.52
2022-11-06T19:19:07.671Z,99336.04
2022-11-06T19:21:36.035Z,99331.98
2022-11-06T19:24:05.668Z,99330.78
2022-11-06T19:26:36.331Z,99328.92
2022-11-06T19:29:09.407Z,99334.86
2022-11-06T19:31:38.411Z,99334.38
2022-11-06T19:34:08.125Z,99336.11
2022-11-06T19:36:37.012Z,99333.58
2022-11-06T19:39:07.492Z,99329.15
2022-11-06T19:41:36.034Z,99328.28
2022-11-06T19:44:07.487Z,99327.52
2022-11-06T19:46:36.628Z,99326.29
2022-11-06T19:49:06.762Z,99320.27
2022-11-06T19:51:37.844Z,99315.63
2022-11-06T19:54:11.404Z,99315.21
2022-11-06T19:57:27.259Z,99314.98
2022-11-06T19:59:28.235Z,99315.10
2022-11-06T20:01:56.951Z,99310.39
2022-11-06T20:04:25.629Z,99306.84
2022-11-06T20:06:54.227Z,99302.20
2022-11-06T20:09:22.484Z,99300.73
2022-11-06T20:11:55.317Z,99303.48
2022-11-06T20:14:23.693Z,99303.80
2022-11-06T20:16:52.199Z,99299.98
2022-11-06T20:19:20.555Z,99298.66
2022-11-06T20:21:49.217Z,99300.05
2022-11-06T20:24:17.675Z,99298.59
2022-11-06T20:26:45.936Z,99297.02
2022-11-06T20:29:14.640Z,99296.88
2022-11-06T20:31:43.196Z,99297.36
2022-11-06T20:34:11.996Z,99302.43
2022-11-06T20:36:40.833Z,99298.23
2022-11-06T20:39:09.869Z,99295.67
2022-11-06T20:41:38.139Z,99298.31
2022-11-06T20:44:06.412Z,99298.02
2022-11-06T20:46:34.922Z,99295.33
2022-11-06T20:49:03.931Z,99296.11
2022-11-06T20:51:42.887Z,99292.90
2022-11-06T20:54:22.361Z,99295.78
2022-11-06T20:56:51.820Z,99295.42
2022-11-06T20:59:20.321Z,99288.19
2022-11-06T21:01:48.831Z,99288.15
2022-11-06T21:04:17.765Z,99285.55
2022-11-06T21:06:46.165Z,99285.27
2022-11-06T21:09:19.138Z,99283.81
2022-11-06T21:11:47.852Z,99285.94
2022-11-06T21:14:16.275Z,99283.67
2022-11-06T21:16:45.001Z,99284.17
2022-11-06T21:19:13.497Z,99280.80
2022-11-06T21:21:42.006Z,99275.55
2022-11-06T21:24:10.275Z,99276.48
2022-11-06T21:26:41.514Z,99276.20
2022-11-06T21:29:11.130Z,99276.61
2022-11-06T21:31:45.729Z,99281.41
2022-11-06T21:34:18.812Z,99280.73
2022-11-06T21:36:48.007Z,99278.48
2022-11-06T21:39:19.115Z,99278.89
2022-11-06T21:41:47.785Z,99276.48
2022-11-06T21:44:18.280Z,99277.02
2022-11-06T21:46:46.934Z,99278.86
2022-11-06T21:49:15.277Z,99278.38
2022-11-06T21:51:43.607Z,99278.36
2022-11-06T21:54:31.479Z,99276.77
2022-11-06T21:56:59.888Z,99275.45
2022-11-06T21:59:30.197Z,99275.93
2022-11-06T22:01:58.528Z,99278.64
2022-11-06T22:04:27.080Z,99279.31
2022-11-06T22:06:55.418Z,99276.96
2022-11-06T22:09:25.881Z,99274.40
2022-11-06T22:11:54.576Z,99277.16
2022-11-06T22:14:23.119Z,99278.52
2022-11-06T22:16:52.587Z,99275.97
2022-11-06T22:19:21.000Z,99268.06
2022-11-06T22:21:49.617Z,99268.87
2022-11-06T22:24:18.675Z,99269.83
2022-11-06T22:26:47.377Z,99263.38
2022-11-06T22:29:16.531Z,99262.75
2022-11-06T22:31:44.785Z,99271.86
2022-11-06T22:34:13.339Z,99269.14
2022-11-06T22:36:42.262Z,99266.48
2022-11-06T22:39:11.895Z,99267.04
2022-11-06T22:41:41.620Z,99268.63
2022-11-06T22:44:10.541Z,99258.40
2022-11-06T22:46:39.103Z,99251.13
2022-11-06T22:49:07.539Z,99259.58
2022-11-06T22:51:36.913Z,99264.45
2022-11-06T22:54:05.405Z,99263.83
2022-11-06T22:56:33.893Z,99262.30
2022-11-06T22:59:07.988Z,99259.88
2022-11-06T23:01:42.009Z,99254.42
2022-11-06T23:04:17.086Z,99248.84
2022-11-06T23:06:45.987Z,99248.93
2022-11-06T23:09:14.935Z,99246.23
2022-11-06T23:11:47.099Z,99246.38
2022-11-06T23:14:15.463Z,99247.00
2022-11-06T23:17:00.996Z,99246.48
2022-11-06T23:19:31.981Z,99249.13
2022-11-06T23:22:19.120Z,99246.25
2022-11-06T23:24:47.693Z,99244.94
2022-11-06T23:27:15.961Z,99244.38
2022-11-06T23:29:44.242Z,99242.81
2022-11-06T23:32:12.741Z,99238.73
2022-11-06T23:34:40.996Z,99234.80
2022-11-06T23:37:09.527Z,99228.69
2022-11-06T23:39:37.849Z,99223.28
2022-11-06T23:42:06.196Z,99226.23
2022-11-06T23:44:53.150Z,99223.05
2022-11-06T23:47:21.506Z,99220.44
2022-11-06T23:49:49.800Z,99217.84
2022-11-06T23:52:18.698Z,99215.04
2022-11-06T23:54:47.084Z,99213.31
2022-11-06T23:57:16.075Z,99211.36
2022-11-06T23:59:44.576Z,99210.41
